createdAt,value
2023-05-22T00:01:19.544Z,100.00
2023-05-22T00:03:50.914Z,100.00
2023-05-22T00:06:23.723Z,100.00
2023-05-22T00:08:53.356Z,100.00
2023-05-22T00:11:23.096Z,100.00
2023-05-22T00:13:53.523Z,100.00
2023-05-22T00:16:23.212Z,100.00
2023-05-22T00:18:53.489Z,100.00
2023-05-22T00:21:28.027Z,100.00
2023-05-22T00:23:57.648Z,100.00
2023-05-22T00:26:27.359Z,100.00
2023-05-22T00:28:56.992Z,100.00
2023-05-22T00:31:26.882Z,100.00
2023-05-22T00:33:56.607Z,100.00
2023-05-22T00:36:28.778Z,100.00
2023-05-22T00:38:58.400Z,100.00
2023-05-22T00:41:28.165Z,100.00
2023-05-22T00:43:57.811Z,100.00
2023-05-22T00:46:27.481Z,100.00
2023-05-22T00:48:57.190Z,100.00
2023-05-22T00:51:29.492Z,100.00
2023-05-22T00:53:59.791Z,100.00
2023-05-22T00:56:29.885Z,100.00
2023-05-22T00:58:59.546Z,100.00
2023-05-22T01:01:33.813Z,100.00
2023-05-22T01:04:05.204Z,100.00
2023-05-22T01:06:37.484Z,100.00
2023-05-22T01:09:08.270Z,100.00
2023-05-22T01:11:44.593Z,100.00
2023-05-22T01:14:23.028Z,100.00
2023-05-22T01:16:59.952Z,100.00
2023-05-22T01:19:50.773Z,100.00
2023-05-22T01:22:38.867Z,100.00
2023-05-22T01:25:27.222Z,100.00
2023-05-22T01:28:12.080Z,100.00
2023-05-22T01:31:03.397Z,100.00
2023-05-22T01:33:36.604Z,100.00
2023-05-22T01:36:10.757Z,100.00
2023-05-22T01:38:40.495Z,100.00
2023-05-22T01:41:10.511Z,100.00
2023-05-22T01:43:40.313Z,100.00
2023-05-22T01:46:12.516Z,100.00
2023-05-22T01:48:42.104Z,100.00
2023-05-22T01:51:17.997Z,100.00
2023-05-22T01:53:54.751Z,100.00
2023-05-22T01:56:30.955Z,100.00
2023-05-22T01:59:07.219Z,100.00
2023-05-22T02:01:41.129Z,100.00
2023-05-22T02:04:13.239Z,100.00
2023-05-22T02:06:44.287Z,100.00
2023-05-22T02:09:14.980Z,100.00
2023-05-22T02:11:45.282Z,100.00
2023-05-22T02:14:16.314Z,100.00
2023-05-22T02:16:50.861Z,100.00
2023-05-22T02:19:20.578Z,100.00
2023-05-22T02:21:50.272Z,100.00
2023-05-22T02:24:19.939Z,100.00
2023-05-22T02:26:49.554Z,100.00
2023-05-22T02:29:19.128Z,100.00
2023-05-22T02:31:51.317Z,100.00
2023-05-22T02:34:21.248Z,100.00
2023-05-22T02:36:51.243Z,100.00
2023-05-22T02:39:21.460Z,100.00
2023-05-22T02:41:51.114Z,100.00
2023-05-22T02:44:20.902Z,100.00
2023-05-22T02:46:53.123Z,100.00
2023-05-22T02:49:22.927Z,100.00
2023-05-22T02:51:52.520Z,100.00
2023-05-22T02:54:22.240Z,100.00
2023-05-22T02:56:51.894Z,100.00
2023-05-22T02:59:21.462Z,100.00
2023-05-22T03:01:54.662Z,100.00
2023-05-22T03:04:24.393Z,100.00
2023-05-22T03:06:54.921Z,100.00
2023-05-22T03:09:24.559Z,100.00
2023-05-22T03:11:54.202Z,100.00
2023-05-22T03:14:23.794Z,100.00
2023-05-22T03:16:56.279Z,100.00
2023-05-22T03:19:26.732Z,100.00
2023-05-22T03:21:56.712Z,100.00
2023-05-22T03:24:27.207Z,100.00
2023-05-22T03:26:56.784Z,100.00
2023-05-22T03:29:26.511Z,99.37
2023-05-22T03:32:00.153Z,99.06
2023-05-22T03:34:30.256Z,98.88
2023-05-22T03:36:59.910Z,98.29
2023-05-22T03:39:29.556Z,97.34
2023-05-22T03:41:59.188Z,95.09
2023-05-22T03:44:28.810Z,93.27
2023-05-22T03:47:01.048Z,92.24
2023-05-22T03:49:30.661Z,91.25
2023-05-22T03:52:00.239Z,88.56
2023-05-22T03:54:29.839Z,87.16
2023-05-22T03:56:59.381Z,88.04
2023-05-22T03:59:29.024Z,86.56
2023-05-22T04:02:01.544Z,85.36
2023-05-22T04:04:32.593Z,83.63
2023-05-22T04:07:02.888Z,82.53
2023-05-22T04:09:34.867Z,81.19
2023-05-22T04:12:04.619Z,78.28
2023-05-22T04:14:34.190Z,74.68
2023-05-22T04:17:06.730Z,71.03
2023-05-22T04:19:36.482Z,68.00
2023-05-22T04:22:06.929Z,64.99
2023-05-22T04:24:36.506Z,63.23
2023-05-22T04:27:06.364Z,62.14
2023-05-22T04:29:36.562Z,59.97
2023-05-22T04:32:10.713Z,58.28
2023-05-22T04:34:41.693Z,56.03
2023-05-22T04:37:11.918Z,54.37
2023-05-22T04:39:41.585Z,52.97
2023-05-22T04:42:11.211Z,51.38
2023-05-22T04:44:40.829Z,50.54
2023-05-22T04:47:14.648Z,50.13
2023-05-22T04:49:45.851Z,49.23
2023-05-22T04:52:15.467Z,48.45
2023-05-22T04:54:46.931Z,48.66
2023-05-22T04:57:17.476Z,51.16
2023-05-22T04:59:48.023Z,50.49
2023-05-22T05:02:20.252Z,52.26
2023-05-22T05:04:49.908Z,54.51
2023-05-22T05:07:19.556Z,55.41
2023-05-22T05:09:49.144Z,54.61
2023-05-22T05:12:18.816Z,54.85
2023-05-22T05:14:48.424Z,52.51
2023-05-22T05:17:22.530Z,51.50
2023-05-22T05:19:52.072Z,50.74
2023-05-22T05:22:21.641Z,51.81
2023-05-22T05:24:51.378Z,52.35
2023-05-22T05:27:21.223Z,50.55
2023-05-22T05:29:50.781Z,51.30
2023-05-22T05:32:23.166Z,48.54
2023-05-22T05:34:53.011Z,51.02
2023-05-22T05:37:22.597Z,48.87
2023-05-22T05:39:52.361Z,48.55
2023-05-22T05:42:21.939Z,50.60
2023-05-22T05:44:51.560Z,48.38
2023-05-22T05:47:24.325Z,47.40
2023-05-22T05:49:54.011Z,48.45
2023-05-22T05:52:24.955Z,48.35
2023-05-22T05:54:54.568Z,47.51
2023-05-22T05:57:25.996Z,45.84
2023-05-22T05:59:55.623Z,44.24
2023-05-22T06:02:27.890Z,45.36
2023-05-22T06:04:59.236Z,45.34
2023-05-22T06:07:28.903Z,43.96
2023-05-22T06:09:58.527Z,44.57
2023-05-22T06:12:28.147Z,44.46
2023-05-22T06:14:59.095Z,44.45
2023-05-22T06:17:31.464Z,45.93
2023-05-22T06:20:01.169Z,46.89
2023-05-22T06:22:30.803Z,45.78
2023-05-22T06:25:00.356Z,45.20
2023-05-22T06:27:30.221Z,46.08
2023-05-22T06:30:00.446Z,46.77
2023-05-22T06:32:32.830Z,45.91
2023-05-22T06:35:03.165Z,45.23
2023-05-22T06:37:36.013Z,42.06
2023-05-22T06:40:06.337Z,43.40
2023-05-22T06:42:36.535Z,42.83
2023-05-22T06:45:06.747Z,43.08
2023-05-22T06:47:38.955Z,39.70
2023-05-22T06:50:10.753Z,39.91
2023-05-22T06:52:40.903Z,39.09
2023-05-22T06:55:11.446Z,38.50
2023-05-22T06:57:41.080Z,38.44
2023-05-22T07:00:12.933Z,39.00
2023-05-22T07:02:45.490Z,36.40
2023-05-22T07:05:15.225Z,36.18
2023-05-22T07:07:44.821Z,38.17
2023-05-22T07:10:14.931Z,40.60
2023-05-22T07:12:44.523Z,38.28
2023-05-22T07:15:14.900Z,38.75
2023-05-22T07:17:47.146Z,38.87
2023-05-22T07:20:17.902Z,37.77
2023-05-22T07:22:47.461Z,38.22
2023-05-22T07:25:17.068Z,38.45
2023-05-22T07:27:46.861Z,37.92
2023-05-22T07:30:16.839Z,37.65
2023-05-22T07:32:49.202Z,37.05
2023-05-22T07:35:19.222Z,37.74
2023-05-22T07:37:48.855Z,39.60
2023-05-22T07:40:18.680Z,41.16
2023-05-22T07:42:48.296Z,39.42
2023-05-22T07:45:18.092Z,37.49
2023-05-22T07:47:50.518Z,36.98
2023-05-22T07:50:20.772Z,35.67
2023-05-22T07:52:50.732Z,36.51
2023-05-22T07:55:20.346Z,36.06
2023-05-22T07:57:50.040Z,35.92
2023-05-22T08:00:21.131Z,36.45
2023-05-22T08:02:53.604Z,36.69
2023-05-22T08:05:23.506Z,36.68
2023-05-22T08:07:53.303Z,37.99
2023-05-22T08:10:23.185Z,37.35
2023-05-22T08:12:52.998Z,37.67
2023-05-22T08:15:22.821Z,37.02
2023-05-22T08:17:55.114Z,36.79
2023-05-22T08:20:25.131Z,35.53
2023-05-22T08:22:54.777Z,35.02
2023-05-22T08:25:24.695Z,34.43
2023-05-22T08:27:54.829Z,32.95
2023-05-22T08:30:24.512Z,33.87
2023-05-22T08:32:56.830Z,32.96
2023-05-22T08:35:26.512Z,33.93
2023-05-22T08:37:56.153Z,34.15
2023-05-22T08:40:27.124Z,33.36
2023-05-22T08:42:57.726Z,33.54
2023-05-22T08:45:31.105Z,32.49
2023-05-22T08:48:07.863Z,31.94
2023-05-22T08:50:41.223Z,33.64
2023-05-22T08:53:14.636Z,33.36
2023-05-22T08:55:44.395Z,35.28
2023-05-22T08:58:14.549Z,35.29
2023-05-22T09:00:44.979Z,33.79
2023-05-22T09:03:18.616Z,34.41
2023-05-22T09:05:49.623Z,33.51
2023-05-22T09:08:21.191Z,33.48
2023-05-22T09:10:51.170Z,33.59
2023-05-22T09:13:30.821Z,32.78
2023-05-22T09:16:10.740Z,33.21
2023-05-22T09:18:44.434Z,33.87
2023-05-22T09:21:28.816Z,33.46
2023-05-22T09:24:02.944Z,31.06
2023-05-22T09:26:33.252Z,31.07
2023-05-22T09:29:03.250Z,29.42
2023-05-22T09:31:32.901Z,31.63
2023-05-22T09:34:05.179Z,31.09
2023-05-22T09:36:35.364Z,31.76
2023-05-22T09:39:06.837Z,32.97
2023-05-22T09:41:39.573Z,32.40
2023-05-22T09:44:16.726Z,32.39
2023-05-22T09:46:48.836Z,33.13
2023-05-22T09:49:21.181Z,31.62
2023-05-22T09:51:52.633Z,30.87
2023-05-22T09:54:23.641Z,32.05
2023-05-22T09:56:56.262Z,31.73
2023-05-22T09:59:30.528Z,31.58
2023-05-22T10:02:02.352Z,32.10
2023-05-22T10:04:36.972Z,32.80
2023-05-22T10:07:07.355Z,32.49
2023-05-22T10:09:41.198Z,34.35
2023-05-22T10:12:16.496Z,33.82
2023-05-22T10:14:46.530Z,33.61
2023-05-22T10:17:17.212Z,34.27
2023-05-22T10:19:50.287Z,34.03
2023-05-22T10:22:21.717Z,34.19
2023-05-22T10:24:51.507Z,33.75
2023-05-22T10:27:21.177Z,33.25
2023-05-22T10:29:55.977Z,33.81
2023-05-22T10:32:35.886Z,34.25
2023-05-22T10:35:20.197Z,35.54
2023-05-22T10:37:54.915Z,35.90
2023-05-22T10:40:29.419Z,35.23
2023-05-22T10:43:04.125Z,35.13
2023-05-22T10:45:34.437Z,34.09
2023-05-22T10:48:08.451Z,34.29
2023-05-22T10:50:41.570Z,33.11
2023-05-22T10:53:25.969Z,34.29
2023-05-22T10:55:57.033Z,34.44
2023-05-22T10:58:32.030Z,32.95
2023-05-22T11:01:13.660Z,33.00
2023-05-22T11:04:01.663Z,33.24
2023-05-22T11:06:52.556Z,33.90
2023-05-22T11:09:29.527Z,33.87
2023-05-22T11:12:21.600Z,34.75
2023-05-22T11:14:56.447Z,34.16
2023-05-22T11:17:27.836Z,34.67
2023-05-22T11:20:02.803Z,33.28
2023-05-22T11:22:37.218Z,33.03
2023-05-22T11:25:11.026Z,32.22
2023-05-22T11:27:43.312Z,32.88
2023-05-22T11:30:14.229Z,32.89
2023-05-22T11:32:46.706Z,33.29
2023-05-22T11:35:21.252Z,32.66
2023-05-22T11:37:55.267Z,33.18
2023-05-22T11:40:27.229Z,31.98
2023-05-22T11:42:57.095Z,32.71
2023-05-22T11:45:27.144Z,31.47
2023-05-22T11:47:56.944Z,32.56
2023-05-22T11:50:41.007Z,31.74
2023-05-22T11:53:15.107Z,31.06
2023-05-22T11:55:45.651Z,30.82
2023-05-22T11:58:15.327Z,33.20
2023-05-22T12:00:46.408Z,34.25
2023-05-22T12:03:17.806Z,34.41
2023-05-22T12:05:49.195Z,34.06
2023-05-22T12:08:22.561Z,34.35
2023-05-22T12:10:53.267Z,35.30
2023-05-22T12:13:27.238Z,33.79
2023-05-22T12:16:00.544Z,34.88
2023-05-22T12:18:30.547Z,34.78
2023-05-22T12:21:00.170Z,34.53
2023-05-22T12:23:32.714Z,33.80
2023-05-22T12:26:03.778Z,33.54
2023-05-22T12:28:35.503Z,34.32
2023-05-22T12:31:06.878Z,34.57
2023-05-22T12:33:36.550Z,32.50
2023-05-22T12:36:10.788Z,33.29
2023-05-22T12:38:43.715Z,34.56
2023-05-22T12:41:13.323Z,33.95
2023-05-22T12:43:43.007Z,33.18
2023-05-22T12:46:12.675Z,34.62
2023-05-22T12:48:42.459Z,33.45
2023-05-22T12:51:12.182Z,34.19
2023-05-22T12:53:44.566Z,32.79
2023-05-22T12:56:14.784Z,32.19
2023-05-22T12:58:44.742Z,33.36
2023-05-22T13:01:14.608Z,32.60
2023-05-22T13:03:44.558Z,33.54
2023-05-22T13:06:14.594Z,31.58
2023-05-22T13:08:48.322Z,32.78
2023-05-22T13:11:20.292Z,32.88
2023-05-22T13:13:50.160Z,34.00
2023-05-22T13:16:19.911Z,32.73
2023-05-22T13:18:49.579Z,33.10
2023-05-22T13:21:19.280Z,33.11
2023-05-22T13:23:51.818Z,32.27
2023-05-22T13:26:21.471Z,33.99
2023-05-22T13:28:51.253Z,33.22
2023-05-22T13:31:21.051Z,32.78
2023-05-22T13:33:50.870Z,32.52
2023-05-22T13:36:21.453Z,33.50
2023-05-22T13:38:53.698Z,33.99
2023-05-22T13:41:23.444Z,33.01
2023-05-22T13:43:53.039Z,32.77
2023-05-22T13:46:24.432Z,33.32
2023-05-22T13:48:54.120Z,33.27
2023-05-22T13:51:23.733Z,32.97
2023-05-22T13:53:55.941Z,32.51
2023-05-22T13:56:26.301Z,31.39
2023-05-22T13:58:57.906Z,32.25
2023-05-22T14:01:27.699Z,31.77
2023-05-22T14:03:57.475Z,32.41
2023-05-22T14:06:27.828Z,32.92
2023-05-22T14:09:00.157Z,33.51
2023-05-22T14:11:30.407Z,32.24
2023-05-22T14:14:00.333Z,31.78
2023-05-22T14:16:30.150Z,32.56
2023-05-22T14:19:02.300Z,33.48
2023-05-22T14:21:32.085Z,33.33
2023-05-22T14:24:05.288Z,33.68
2023-05-22T14:26:35.402Z,33.68
2023-05-22T14:29:05.211Z,33.13
2023-05-22T14:31:34.918Z,33.65
2023-05-22T14:34:04.551Z,33.47
2023-05-22T14:36:34.360Z,33.29
2023-05-22T14:39:06.803Z,32.70
2023-05-22T14:41:36.748Z,33.08
2023-05-22T14:44:06.511Z,33.24
2023-05-22T14:46:36.437Z,32.24
2023-05-22T14:49:12.051Z,33.59
2023-05-22T14:51:41.753Z,33.09
2023-05-22T14:54:15.656Z,33.33
2023-05-22T14:56:45.636Z,34.23
2023-05-22T14:59:15.721Z,33.13
2023-05-22T15:01:50.265Z,34.09
2023-05-22T15:04:20.070Z,32.89
2023-05-22T15:06:49.733Z,32.88
2023-05-22T15:09:21.928Z,33.09
2023-05-22T15:11:51.548Z,32.31
2023-05-22T15:14:21.719Z,33.51
2023-05-22T15:16:51.700Z,33.14
2023-05-22T15:19:21.408Z,33.33
2023-05-22T15:21:51.102Z,32.61
2023-05-22T15:24:23.941Z,34.30
2023-05-22T15:26:53.733Z,34.09
2023-05-22T15:29:23.335Z,34.12
2023-05-22T15:31:53.033Z,33.63
2023-05-22T15:34:22.765Z,34.73
2023-05-22T15:36:52.463Z,33.54
2023-05-22T15:39:28.102Z,33.61
2023-05-22T15:42:06.462Z,32.79
2023-05-22T15:44:36.840Z,33.75
2023-05-22T15:47:06.496Z,33.65
2023-05-22T15:52:11.305Z,33.97
2023-05-22T15:54:43.547Z,34.57
2023-05-22T15:57:13.348Z,33.94
2023-05-22T15:59:43.005Z,33.82
2023-05-22T16:02:12.656Z,34.11
2023-05-22T16:04:42.297Z,33.87
2023-05-22T16:07:12.018Z,34.02
2023-05-22T16:09:44.846Z,33.35
2023-05-22T16:12:14.524Z,33.62
2023-05-22T16:14:44.251Z,34.65
2023-05-22T16:17:13.932Z,35.27
2023-05-22T16:19:43.540Z,34.78
2023-05-22T16:22:13.182Z,35.60
2023-05-22T16:24:45.477Z,35.42
2023-05-22T16:27:15.125Z,36.73
2023-05-22T16:29:44.746Z,36.32
2023-05-22T16:32:14.381Z,37.32
2023-05-22T16:34:44.062Z,38.01
2023-05-22T16:37:13.680Z,37.66
2023-05-22T16:39:48.730Z,38.11
2023-05-22T16:42:19.342Z,39.19
2023-05-22T16:44:49.196Z,38.24
2023-05-22T16:47:19.166Z,38.59
2023-05-22T16:49:48.771Z,39.27
2023-05-22T16:52:23.516Z,39.77
2023-05-22T16:54:56.540Z,40.97
2023-05-22T16:57:29.275Z,41.08
2023-05-22T16:59:59.126Z,41.74
2023-05-22T17:02:29.079Z,43.14
2023-05-22T17:04:58.815Z,42.70
2023-05-22T17:07:28.425Z,43.40
2023-05-22T17:10:01.199Z,43.45
2023-05-22T17:12:30.908Z,44.32
2023-05-22T17:15:00.806Z,44.37
2023-05-22T17:17:30.383Z,45.32
2023-05-22T17:20:01.693Z,45.65
2023-05-22T17:22:31.345Z,45.99
2023-05-22T17:25:03.564Z,46.10
2023-05-22T17:27:36.044Z,46.34
2023-05-22T17:30:07.890Z,47.37
2023-05-22T17:32:38.020Z,47.53
2023-05-22T17:35:09.690Z,47.39
2023-05-22T17:37:39.476Z,47.80
2023-05-22T17:40:13.156Z,48.15
2023-05-22T17:42:42.782Z,48.18
2023-05-22T17:45:13.433Z,48.60
2023-05-22T17:47:43.232Z,48.76
2023-05-22T17:50:14.255Z,49.61
2023-05-22T17:52:44.163Z,48.60
2023-05-22T17:55:16.896Z,49.38
2023-05-22T17:57:46.497Z,49.28
2023-05-22T18:00:17.690Z,49.94
2023-05-22T18:02:47.958Z,49.69
2023-05-22T18:05:17.789Z,49.88
2023-05-22T18:07:47.386Z,49.95
2023-05-22T18:10:20.025Z,50.21
2023-05-22T18:12:49.626Z,50.30
2023-05-22T18:15:19.253Z,50.21
2023-05-22T18:17:48.955Z,50.55
2023-05-22T18:20:20.289Z,50.76
2023-05-22T18:22:49.911Z,50.68
2023-05-22T18:25:22.148Z,51.07
2023-05-22T18:27:51.836Z,51.60
2023-05-22T18:30:21.600Z,52.53
2023-05-22T18:32:51.286Z,52.84
2023-05-22T18:35:20.914Z,53.10
2023-05-22T18:37:50.538Z,53.30
2023-05-22T18:40:22.857Z,54.01
2023-05-22T18:42:52.578Z,53.93
2023-05-22T18:45:22.189Z,54.66
2023-05-22T18:47:51.936Z,55.28
2023-05-22T18:50:23.561Z,55.63
2023-05-22T18:52:53.532Z,55.96
2023-05-22T18:55:26.040Z,56.38
2023-05-22T18:57:55.683Z,57.11
2023-05-22T19:00:25.633Z,57.34
2023-05-22T19:02:55.392Z,57.70
2023-05-22T19:05:25.138Z,58.58
2023-05-22T19:07:54.878Z,58.39
2023-05-22T19:10:27.225Z,58.59
2023-05-22T19:12:56.863Z,59.16
2023-05-22T19:15:26.625Z,59.51
2023-05-22T19:17:56.550Z,60.34
2023-05-22T19:20:26.555Z,60.98
2023-05-22T19:22:56.769Z,61.24
2023-05-22T19:25:29.064Z,61.51
2023-05-22T19:27:58.686Z,62.19
2023-05-22T19:30:28.620Z,62.47
2023-05-22T19:32:58.344Z,62.46
2023-05-22T19:35:28.095Z,62.89
2023-05-22T19:37:57.751Z,63.20
2023-05-22T19:40:29.976Z,63.51
2023-05-22T19:42:59.883Z,63.86
2023-05-22T19:45:29.963Z,64.23
2023-05-22T19:47:59.707Z,64.55
2023-05-22T19:50:29.367Z,65.10
2023-05-22T19:52:58.996Z,65.49
2023-05-22T19:55:31.537Z,65.64
2023-05-22T19:58:01.202Z,65.50
2023-05-22T20:00:31.926Z,66.39
2023-05-22T20:03:01.811Z,66.78
2023-05-22T20:05:31.504Z,67.14
2023-05-22T20:08:01.695Z,67.23
2023-05-22T20:10:33.842Z,67.45
2023-05-22T20:13:05.031Z,67.39
2023-05-22T20:15:34.876Z,67.70
2023-05-22T20:18:05.548Z,67.70
2023-05-22T20:20:35.360Z,67.75
2023-05-22T20:23:05.046Z,68.36
2023-05-22T20:25:37.957Z,68.66
2023-05-22T20:28:07.872Z,67.62
2023-05-22T20:30:37.482Z,68.54
2023-05-22T20:33:07.134Z,68.78
2023-05-22T20:35:37.384Z,69.21
2023-05-22T20:38:08.916Z,69.11
2023-05-22T20:40:42.569Z,69.68
2023-05-22T20:43:14.145Z,70.59
2023-05-22T20:45:46.074Z,71.42
2023-05-22T20:48:16.824Z,72.11
2023-05-22T20:50:47.351Z,74.11
2023-05-22T20:53:17.597Z,74.38
2023-05-22T20:55:49.755Z,73.66
2023-05-22T20:58:20.042Z,73.74
2023-05-22T21:00:50.261Z,73.90
2023-05-22T21:03:20.003Z,74.05
2023-05-22T21:05:49.741Z,74.83
2023-05-22T21:08:19.522Z,73.78
2023-05-22T21:10:51.717Z,73.47
2023-05-22T21:13:21.953Z,74.53
2023-05-22T21:15:52.254Z,74.92
2023-05-22T21:18:22.268Z,74.69
2023-05-22T21:20:51.869Z,75.36
2023-05-22T21:23:23.156Z,75.54
2023-05-22T21:25:56.756Z,75.68
2023-05-22T21:28:26.708Z,76.01
2023-05-22T21:30:56.478Z,76.06
2023-05-22T21:33:26.328Z,76.39
2023-05-22T21:35:56.174Z,76.39
2023-05-22T21:38:25.906Z,76.08
2023-05-22T21:40:58.079Z,76.68
2023-05-22T21:43:27.974Z,78.04
2023-05-22T21:45:58.165Z,80.11
2023-05-22T21:48:28.410Z,81.13
2023-05-22T21:50:58.023Z,81.92
2023-05-22T21:53:27.702Z,84.07
2023-05-22T21:55:59.880Z,82.96
2023-05-22T21:58:29.537Z,83.22
2023-05-22T22:00:59.161Z,82.68
2023-05-22T22:03:28.912Z,82.86
2023-05-22T22:05:58.575Z,84.22
2023-05-22T22:08:28.635Z,83.57
2023-05-22T22:11:01.060Z,84.06
2023-05-22T22:13:30.698Z,84.85
2023-05-22T22:16:00.502Z,84.63
2023-05-22T22:18:32.551Z,84.83
2023-05-22T22:21:02.565Z,84.98
2023-05-22T22:23:32.313Z,84.70
2023-05-22T22:26:04.641Z,85.34
2023-05-22T22:28:34.242Z,85.72
2023-05-22T22:31:03.989Z,86.33
2023-05-22T22:33:33.653Z,86.47
2023-05-22T22:36:03.705Z,87.30
2023-05-22T22:38:35.232Z,86.93
2023-05-22T22:41:09.471Z,87.26
2023-05-22T22:43:39.179Z,87.66
2023-05-22T22:46:09.348Z,87.73
2023-05-22T22:48:41.896Z,88.42
2023-05-22T22:51:11.996Z,87.26
2023-05-22T22:53:41.958Z,86.36
2023-05-22T22:56:14.831Z,87.10
2023-05-22T22:58:44.807Z,87.22
2023-05-22T23:01:14.388Z,87.04
2023-05-22T23:03:44.112Z,86.57
2023-05-22T23:06:13.692Z,87.35
2023-05-22T23:08:43.349Z,87.94
2023-05-22T23:11:15.601Z,88.10
2023-05-22T23:13:45.344Z,88.41
2023-05-22T23:16:15.023Z,88.41
2023-05-22T23:18:44.699Z,88.53
2023-05-22T23:21:14.316Z,89.16
2023-05-22T23:23:43.929Z,89.36
2023-05-22T23:26:16.137Z,89.83
2023-05-22T23:28:45.884Z,90.37
2023-05-22T23:31:16.449Z,92.24
2023-05-22T23:33:47.758Z,93.90
2023-05-22T23:36:17.464Z,93.62
2023-05-22T23:38:47.069Z,94.28
2023-05-22T23:41:20.360Z,95.88
2023-05-22T23:43:50.384Z,96.24
2023-05-22T23:46:21.462Z,96.54
2023-05-22T23:48:51.117Z,97.53
2023-05-22T23:51:20.721Z,97.11
2023-05-22T23:53:50.325Z,97.55
2023-05-22T23:56:22.549Z,97.90
2023-05-22T23:58:52.238Z,98.42
